createdAt,value
2022-10-22T00:01:06.740Z,11.11
2022-10-22T00:03:33.332Z,11.06
2022-10-22T00:05:59.899Z,11.14
2022-10-22T00:08:26.679Z,11.00
2022-10-22T00:10:53.398Z,11.02
2022-10-22T00:13:21.352Z,11.10
2022-10-22T00:15:48.890Z,11.15
2022-10-22T00:18:15.484Z,11.08
2022-10-22T00:20:42.211Z,11.12
2022-10-22T00:23:08.794Z,11.24
2022-10-22T00:25:35.891Z,11.18
2022-10-22T00:28:02.868Z,11.25
2022-10-22T00:30:30.748Z,11.29
2022-10-22T00:32:57.317Z,11.16
2022-10-22T00:35:23.896Z,11.22
2022-10-22T00:37:50.480Z,11.29
2022-10-22T00:40:17.101Z,11.20
2022-10-22T00:42:43.970Z,11.17
2022-10-22T00:45:18.730Z,11.21
2022-10-22T00:47:50.577Z,11.20
2022-10-22T00:50:19.239Z,11.18
2022-10-22T00:52:46.828Z,11.21
2022-10-22T00:55:14.243Z,11.24
2022-10-22T00:57:41.211Z,11.22
2022-10-22T01:00:10.020Z,11.10
2022-10-22T01:02:36.727Z,11.19
2022-10-22T01:05:05.298Z,11.27
2022-10-22T01:07:38.249Z,11.26
2022-10-22T01:10:10.692Z,11.18
2022-10-22T01:12:46.307Z,11.21
2022-10-22T01:15:22.423Z,11.21
2022-10-22T01:17:58.310Z,11.24
2022-10-22T01:20:46.657Z,11.29
2022-10-22T01:23:24.258Z,11.34
2022-10-22T01:25:58.511Z,11.28
2022-10-22T01:28:43.836Z,11.10
2022-10-22T01:31:13.495Z,11.23
2022-10-22T01:33:40.767Z,11.17
2022-10-22T01:36:08.860Z,11.12
2022-10-22T01:38:36.404Z,11.16
2022-10-22T01:41:03.128Z,11.15
2022-10-22T01:43:29.639Z,11.22
2022-10-22T01:46:01.367Z,11.25
2022-10-22T01:48:40.336Z,11.19
2022-10-22T01:51:22.390Z,11.09
2022-10-22T01:53:52.828Z,11.19
2022-10-22T01:56:36.324Z,11.19
2022-10-22T01:59:07.995Z,11.20
2022-10-22T02:01:46.312Z,11.26
2022-10-22T02:04:19.057Z,11.32
2022-10-22T02:06:47.848Z,11.32
2022-10-22T02:09:16.408Z,11.34
2022-10-22T02:11:44.590Z,11.32
2022-10-22T02:14:12.621Z,11.34
2022-10-22T02:16:44.324Z,11.34
2022-10-22T02:19:19.267Z,11.33
2022-10-22T02:21:45.998Z,11.34
2022-10-22T02:24:13.143Z,11.38
2022-10-22T02:26:46.292Z,11.28
2022-10-22T02:29:18.699Z,11.25
2022-10-22T02:31:48.826Z,11.23
2022-10-22T02:34:21.612Z,11.28
2022-10-22T02:36:50.522Z,11.25
2022-10-22T02:39:19.094Z,11.29
2022-10-22T02:41:45.723Z,11.34
2022-10-22T02:44:12.263Z,11.34
2022-10-22T02:46:40.141Z,11.35
2022-10-22T02:49:08.153Z,11.34
2022-10-22T02:51:34.770Z,11.32
2022-10-22T02:54:01.384Z,11.36
2022-10-22T02:56:27.946Z,11.40
2022-10-22T02:58:54.477Z,11.41
2022-10-22T03:01:21.338Z,11.46
2022-10-22T03:03:47.943Z,11.42
2022-10-22T03:06:16.261Z,11.41
2022-10-22T03:08:42.929Z,11.40
2022-10-22T03:11:09.617Z,11.41
2022-10-22T03:13:36.345Z,11.48
2022-10-22T03:16:02.926Z,11.48
2022-10-22T03:18:29.454Z,11.52
2022-10-22T03:21:07.780Z,11.48
2022-10-22T03:23:36.336Z,11.54
2022-10-22T03:26:04.367Z,11.62
2022-10-22T03:28:30.948Z,11.63
2022-10-22T03:30:57.504Z,11.61
2022-10-22T03:33:24.051Z,11.61
2022-10-22T03:35:50.754Z,11.61
2022-10-22T03:38:17.360Z,11.63
2022-10-22T03:40:46.401Z,11.63
2022-10-22T03:43:13.407Z,11.68
2022-10-22T03:45:39.996Z,11.71
2022-10-22T03:48:06.746Z,11.70
2022-10-22T03:50:33.427Z,11.70
2022-10-22T03:52:59.997Z,11.73
2022-10-22T03:55:26.731Z,11.74
2022-10-22T03:57:54.615Z,11.76
2022-10-22T04:00:21.429Z,11.71
2022-10-22T04:02:47.985Z,11.59
2022-10-22T04:07:46.185Z,11.66
2022-10-22T04:10:12.739Z,11.69
2022-10-22T04:12:39.303Z,11.64
2022-10-22T04:15:08.899Z,11.66
2022-10-22T04:17:36.151Z,11.71
2022-10-22T04:20:04.816Z,11.65
2022-10-22T04:22:33.661Z,11.66
2022-10-22T04:25:00.306Z,11.68
2022-10-22T04:27:30.573Z,11.64
2022-10-22T04:29:57.181Z,11.62
2022-10-22T04:32:25.205Z,11.63
2022-10-22T04:34:51.809Z,11.67
2022-10-22T04:37:18.388Z,11.67
2022-10-22T04:39:44.935Z,11.67
2022-10-22T04:42:11.564Z,11.73
2022-10-22T04:44:38.249Z,11.74
2022-10-22T04:47:04.885Z,11.71
2022-10-22T04:49:32.815Z,11.74
2022-10-22T04:51:59.383Z,11.77
2022-10-22T04:54:29.057Z,11.74
2022-10-22T04:56:58.897Z,11.74
2022-10-22T04:59:25.470Z,11.75
2022-10-22T05:01:52.021Z,11.76
2022-10-22T05:04:18.599Z,11.83
2022-10-22T05:06:46.937Z,11.74
2022-10-22T05:09:16.558Z,11.73
2022-10-22T05:11:44.817Z,11.70
2022-10-22T05:14:11.970Z,11.67
2022-10-22T05:16:38.820Z,11.70
2022-10-22T05:19:07.032Z,11.67
2022-10-22T05:21:34.588Z,11.68
2022-10-22T05:24:02.517Z,11.68
2022-10-22T05:26:29.832Z,11.61
2022-10-22T05:28:56.636Z,11.63
2022-10-22T05:31:23.736Z,11.59
2022-10-22T05:33:50.271Z,11.56
2022-10-22T05:36:19.334Z,11.47
2022-10-22T05:38:46.108Z,11.50
2022-10-22T05:41:15.397Z,11.42
2022-10-22T05:43:42.062Z,11.37
2022-10-22T05:46:10.223Z,11.38
2022-10-22T05:48:36.852Z,11.45
2022-10-22T05:51:04.537Z,11.49
2022-10-22T05:53:32.016Z,11.48
2022-10-22T05:56:00.953Z,11.56
2022-10-22T05:58:29.071Z,11.61
2022-10-22T06:01:00.507Z,11.58
2022-10-22T06:03:27.068Z,11.65
2022-10-22T06:05:54.154Z,11.67
2022-10-22T06:08:20.797Z,11.75
2022-10-22T06:10:47.387Z,11.80
2022-10-22T06:13:13.913Z,11.78
2022-10-22T06:15:41.784Z,11.82
2022-10-22T06:18:08.314Z,11.81
2022-10-22T06:20:35.283Z,11.82
2022-10-22T06:23:01.837Z,11.77
2022-10-22T06:25:28.404Z,11.82
2022-10-22T06:27:54.947Z,11.84
2022-10-22T06:30:21.491Z,11.89
2022-10-22T06:32:49.362Z,11.97
2022-10-22T06:35:16.084Z,11.93
2022-10-22T06:37:43.011Z,11.96
2022-10-22T06:40:10.874Z,11.94
2022-10-22T06:42:37.424Z,12.04
2022-10-22T06:45:05.266Z,12.11
2022-10-22T06:47:31.846Z,12.17
2022-10-22T06:49:59.723Z,12.00
2022-10-22T06:52:26.268Z,12.04
2022-10-22T06:54:52.837Z,12.12
2022-10-22T06:57:19.389Z,12.23
2022-10-22T06:59:46.396Z,12.27
2022-10-22T07:02:13.370Z,12.26
2022-10-22T07:04:39.913Z,12.31
2022-10-22T07:07:07.825Z,12.38
2022-10-22T07:09:34.353Z,12.34
2022-10-22T07:12:00.929Z,12.26
2022-10-22T07:14:27.442Z,12.32
2022-10-22T07:16:54.140Z,12.42
2022-10-22T07:19:20.689Z,12.53
2022-10-22T07:21:47.243Z,12.60
2022-10-22T07:24:15.142Z,12.46
2022-10-22T07:26:41.732Z,12.56
2022-10-22T07:29:08.295Z,12.62
2022-10-22T07:31:34.854Z,12.64
2022-10-22T07:34:01.447Z,12.69
2022-10-22T07:36:28.006Z,12.82
2022-10-22T07:38:56.479Z,12.77
2022-10-22T07:41:24.862Z,12.72
2022-10-22T07:43:51.450Z,12.88
2022-10-22T07:46:18.268Z,12.97
2022-10-22T07:48:44.831Z,12.97
2022-10-22T07:51:11.474Z,13.04
2022-10-22T07:53:38.231Z,13.05
2022-10-22T07:56:05.173Z,12.99
2022-10-22T07:58:33.367Z,13.08
2022-10-22T08:01:02.030Z,12.99
2022-10-22T08:03:29.265Z,13.04
2022-10-22T08:05:56.239Z,13.13
2022-10-22T08:08:25.834Z,13.25
2022-10-22T08:10:57.713Z,13.16
2022-10-22T08:13:24.260Z,13.19
2022-10-22T08:15:53.680Z,13.21
2022-10-22T08:18:23.135Z,13.22
2022-10-22T08:20:49.717Z,13.15
2022-10-22T08:23:16.251Z,13.19
2022-10-22T08:25:42.824Z,13.00
2022-10-22T08:28:09.818Z,13.21
2022-10-22T08:30:36.840Z,13.15
2022-10-22T08:33:05.084Z,13.16
2022-10-22T08:35:31.821Z,13.14
2022-10-22T08:37:58.411Z,13.12
2022-10-22T08:40:30.367Z,13.24
2022-10-22T08:43:18.254Z,13.12
2022-10-22T08:45:56.014Z,13.01
2022-10-22T08:48:34.434Z,13.02
2022-10-22T08:51:01.110Z,13.24
2022-10-22T08:53:34.287Z,13.32
2022-10-22T08:56:00.866Z,13.32
2022-10-22T08:58:35.755Z,13.47
2022-10-22T09:01:07.349Z,13.37
2022-10-22T09:03:45.997Z,13.42
2022-10-22T09:06:15.609Z,13.51
2022-10-22T09:08:44.726Z,13.50
2022-10-22T09:11:19.827Z,13.78
2022-10-22T09:13:47.833Z,13.98
2022-10-22T09:16:18.111Z,13.93
2022-10-22T09:18:57.132Z,14.18
2022-10-22T09:21:33.851Z,14.10
2022-10-22T09:24:04.928Z,13.95
2022-10-22T09:26:34.074Z,13.82
2022-10-22T09:29:01.259Z,13.90
2022-10-22T09:31:31.194Z,14.07
2022-10-22T09:34:00.213Z,13.87
2022-10-22T09:36:29.198Z,13.96
2022-10-22T09:38:55.955Z,13.90
2022-10-22T09:41:25.604Z,14.10
2022-10-22T09:43:52.181Z,14.15
2022-10-22T09:46:20.755Z,14.16
2022-10-22T09:48:50.093Z,14.13
2022-10-22T09:51:21.797Z,14.16
2022-10-22T09:53:56.360Z,13.91
2022-10-22T09:56:26.497Z,13.93
2022-10-22T09:58:55.559Z,14.14
2022-10-22T10:01:25.679Z,14.18
2022-10-22T10:03:53.146Z,14.30
2022-10-22T10:06:22.968Z,14.17
2022-10-22T10:08:50.237Z,14.01
2022-10-22T10:11:28.950Z,14.00
2022-10-22T10:14:08.476Z,14.05
2022-10-22T10:16:55.560Z,14.12
2022-10-22T10:19:41.759Z,14.27
2022-10-22T10:22:21.704Z,14.29
2022-10-22T10:24:59.146Z,14.45
2022-10-22T10:27:29.977Z,14.50
2022-10-22T10:30:03.945Z,14.56
2022-10-22T10:32:51.588Z,14.64
2022-10-22T10:35:25.323Z,14.95
2022-10-22T10:38:09.152Z,14.92
2022-10-22T10:40:44.907Z,15.01
2022-10-22T10:43:17.829Z,15.14
2022-10-22T10:45:57.441Z,15.23
2022-10-22T10:48:40.631Z,15.23
2022-10-22T10:51:21.956Z,15.38
2022-10-22T10:54:01.291Z,15.52
2022-10-22T10:56:39.092Z,15.58
2022-10-22T10:59:18.079Z,15.65
2022-10-22T11:01:59.474Z,15.59
2022-10-22T11:05:02.270Z,15.52
2022-10-22T11:07:36.586Z,15.52
2022-10-22T11:10:09.694Z,15.63
2022-10-22T11:12:42.414Z,15.66
2022-10-22T11:15:19.115Z,15.57
2022-10-22T11:17:48.177Z,15.60
2022-10-22T11:20:19.370Z,15.70
2022-10-22T11:23:17.519Z,15.77
2022-10-22T11:25:43.381Z,15.78
2022-10-22T11:28:17.244Z,15.77
2022-10-22T11:30:48.667Z,15.94
2022-10-22T11:33:19.133Z,16.05
2022-10-22T11:35:47.028Z,15.88
2022-10-22T11:38:17.358Z,15.93
2022-10-22T11:40:47.542Z,15.99
2022-10-22T11:43:27.196Z,16.05
2022-10-22T11:46:00.574Z,16.10
2022-10-22T11:48:34.313Z,16.05
2022-10-22T11:51:01.990Z,16.02
2022-10-22T11:53:33.073Z,15.99
2022-10-22T11:56:22.059Z,15.95
2022-10-22T11:58:52.251Z,15.90
2022-10-22T12:01:27.371Z,15.95
2022-10-22T12:04:22.295Z,16.07
2022-10-22T12:07:00.553Z,16.22
2022-10-22T12:09:30.653Z,16.30
2022-10-22T12:12:04.311Z,16.35
2022-10-22T12:14:34.459Z,16.29
2022-10-22T12:17:08.334Z,16.24
2022-10-22T12:19:37.930Z,16.34
2022-10-22T12:22:14.789Z,16.51
2022-10-22T12:24:46.004Z,16.55
2022-10-22T12:27:22.221Z,16.59
2022-10-22T12:29:54.648Z,16.55
2022-10-22T12:32:21.305Z,16.52
2022-10-22T12:37:17.538Z,16.44
2022-10-22T12:39:46.788Z,16.53
2022-10-22T12:42:15.062Z,16.59
2022-10-22T12:44:43.372Z,16.63
2022-10-22T12:47:15.478Z,16.71
2022-10-22T12:49:44.505Z,16.59
2022-10-22T12:52:14.664Z,16.42
2022-10-22T12:54:41.669Z,16.41
2022-10-22T12:57:14.663Z,16.53
2022-10-22T12:59:47.231Z,16.47
2022-10-22T13:02:19.769Z,16.49
2022-10-22T13:05:13.747Z,16.28
2022-10-22T13:07:43.632Z,16.47
2022-10-22T13:10:18.788Z,16.61
2022-10-22T13:12:50.224Z,16.77
2022-10-22T13:15:23.028Z,16.75
2022-10-22T13:17:49.738Z,16.70
2022-10-22T13:20:19.643Z,16.83
2022-10-22T13:22:58.346Z,16.98
2022-10-22T13:25:27.271Z,17.19
2022-10-22T13:27:57.377Z,17.19
2022-10-22T13:30:25.895Z,17.12
2022-10-22T13:32:54.791Z,17.14
2022-10-22T13:35:24.384Z,17.05
2022-10-22T13:37:50.939Z,17.02
2022-10-22T13:40:18.003Z,16.88
2022-10-22T13:42:44.842Z,16.83
2022-10-22T13:45:13.576Z,16.76
2022-10-22T13:47:40.968Z,16.78
2022-10-22T13:50:13.756Z,16.66
2022-10-22T13:52:43.722Z,16.59
2022-10-22T13:55:16.568Z,16.58
2022-10-22T13:57:43.367Z,16.50
2022-10-22T14:00:15.061Z,16.48
2022-10-22T14:02:42.079Z,16.47
2022-10-22T14:05:10.131Z,16.54
2022-10-22T14:07:37.423Z,16.49
2022-10-22T14:10:13.453Z,16.64
2022-10-22T14:12:40.027Z,16.78
2022-10-22T14:15:07.873Z,16.89
2022-10-22T14:17:35.836Z,16.91
2022-10-22T14:20:02.403Z,16.91
2022-10-22T14:22:30.483Z,16.75
2022-10-22T14:24:57.112Z,16.54
2022-10-22T14:27:23.676Z,16.54
2022-10-22T14:29:50.234Z,16.51
2022-10-22T14:32:18.835Z,16.37
2022-10-22T14:34:47.527Z,16.30
2022-10-22T14:37:16.856Z,16.31
2022-10-22T14:39:43.707Z,16.25
2022-10-22T14:42:11.345Z,16.22
2022-10-22T14:44:37.931Z,16.13
2022-10-22T14:47:04.658Z,16.06
2022-10-22T14:49:31.217Z,15.96
2022-10-22T14:51:59.340Z,15.90
2022-10-22T14:54:26.121Z,15.91
2022-10-22T14:56:52.671Z,15.99
2022-10-22T14:59:19.229Z,15.96
2022-10-22T15:01:45.820Z,15.94
2022-10-22T15:04:12.402Z,16.06
2022-10-22T15:06:38.979Z,16.14
2022-10-22T15:09:06.945Z,16.17
2022-10-22T15:11:33.568Z,16.18
2022-10-22T15:14:00.117Z,16.17
2022-10-22T15:16:26.690Z,16.13
2022-10-22T15:18:53.278Z,16.08
2022-10-22T15:21:21.947Z,16.08
2022-10-22T15:23:49.266Z,16.03
2022-10-22T15:26:17.373Z,15.91
2022-10-22T15:28:43.933Z,15.88
2022-10-22T15:31:13.502Z,15.86
2022-10-22T15:33:41.417Z,15.72
2022-10-22T15:36:12.364Z,15.62
2022-10-22T15:38:39.245Z,15.46
2022-10-22T15:41:07.656Z,15.32
2022-10-22T15:43:35.940Z,15.18
2022-10-22T15:46:10.989Z,15.07
2022-10-22T15:48:37.583Z,14.83
2022-10-22T15:51:08.644Z,14.57
2022-10-22T15:53:35.231Z,14.46
2022-10-22T15:56:01.838Z,14.34
2022-10-22T15:58:28.394Z,14.26
2022-10-22T16:01:03.116Z,14.23
2022-10-22T16:06:02.099Z,13.89
2022-10-22T16:08:28.719Z,13.83
2022-10-22T16:10:55.326Z,13.79
2022-10-22T16:13:22.610Z,13.71
2022-10-22T16:15:49.321Z,13.69
2022-10-22T16:18:17.337Z,13.67
2022-10-22T16:20:44.046Z,13.67
2022-10-22T16:23:10.713Z,13.61
2022-10-22T16:25:38.318Z,13.47
2022-10-22T16:28:05.492Z,13.41
2022-10-22T16:30:32.836Z,13.20
2022-10-22T16:32:59.417Z,13.01
2022-10-22T16:35:28.343Z,12.81
2022-10-22T16:37:54.909Z,12.64
2022-10-22T16:40:21.677Z,12.50
2022-10-22T16:42:48.276Z,12.42
2022-10-22T16:47:46.788Z,12.29
2022-10-22T16:50:13.442Z,12.20
2022-10-22T16:52:41.510Z,12.12
2022-10-22T16:55:08.992Z,12.11
2022-10-22T16:57:35.745Z,12.14
2022-10-22T17:00:02.384Z,12.05
2022-10-22T17:02:28.955Z,11.98
2022-10-22T17:04:55.527Z,11.92
2022-10-22T17:07:22.117Z,11.82
2022-10-22T17:09:50.043Z,11.82
2022-10-22T17:12:16.749Z,11.79
2022-10-22T17:14:43.309Z,11.80
2022-10-22T17:17:09.876Z,11.78
2022-10-22T17:19:36.437Z,11.73
2022-10-22T17:22:02.993Z,11.66
2022-10-22T17:24:29.523Z,11.64
2022-10-22T17:26:57.513Z,11.53
2022-10-22T17:29:24.068Z,11.52
2022-10-22T17:31:50.687Z,11.47
2022-10-22T17:34:17.426Z,11.39
2022-10-22T17:36:44.605Z,11.38
2022-10-22T17:39:16.183Z,11.41
2022-10-22T17:41:42.757Z,11.37
2022-10-22T17:44:17.036Z,11.37
2022-10-22T17:46:43.865Z,11.37
2022-10-22T17:49:15.786Z,11.30
2022-10-22T17:51:42.164Z,11.28
2022-10-22T17:54:10.076Z,11.22
2022-10-22T17:56:37.717Z,11.18
2022-10-22T17:59:04.300Z,11.14
2022-10-22T18:01:35.123Z,11.08
2022-10-22T18:04:03.573Z,11.01
2022-10-22T18:06:30.983Z,11.02
2022-10-22T18:08:57.829Z,10.98
2022-10-22T18:11:27.022Z,10.98
2022-10-22T18:13:56.003Z,11.00
2022-10-22T18:16:22.767Z,10.94
2022-10-22T18:18:52.683Z,10.93
2022-10-22T18:21:20.352Z,10.85
2022-10-22T18:23:47.088Z,10.84
2022-10-22T18:26:14.055Z,10.83
2022-10-22T18:28:40.987Z,10.73
2022-10-22T18:31:09.170Z,10.76
2022-10-22T18:33:36.506Z,10.79
2022-10-22T18:36:06.816Z,10.69
2022-10-22T18:38:33.498Z,10.68
2022-10-22T18:41:00.085Z,10.67
2022-10-22T18:43:26.723Z,10.70
2022-10-22T18:45:53.284Z,10.67
2022-10-22T18:48:20.780Z,10.60
2022-10-22T18:50:47.394Z,10.59
2022-10-22T18:53:16.740Z,10.60
2022-10-22T18:55:43.505Z,10.57
2022-10-22T18:58:10.042Z,10.56
2022-10-22T19:00:36.618Z,10.54
2022-10-22T19:03:03.300Z,10.53
2022-10-22T19:05:29.968Z,10.53
2022-10-22T19:07:56.543Z,10.50
2022-10-22T19:10:24.471Z,10.39
2022-10-22T19:12:51.068Z,10.40
2022-10-22T19:15:17.886Z,10.34
2022-10-22T19:17:44.671Z,10.28
2022-10-22T19:20:11.457Z,10.18
2022-10-22T19:22:38.038Z,10.10
2022-10-22T19:25:07.110Z,10.11
2022-10-22T19:27:37.616Z,10.13
2022-10-22T19:30:04.607Z,10.07
2022-10-22T19:32:31.366Z,10.09
2022-10-22T19:34:57.985Z,10.10
2022-10-22T19:37:24.651Z,10.06
2022-10-22T19:39:51.442Z,10.01
2022-10-22T19:42:18.002Z,9.94
2022-10-22T19:44:45.949Z,9.93
2022-10-22T19:47:12.528Z,9.94
2022-10-22T19:49:39.068Z,9.90
2022-10-22T19:52:05.722Z,9.86
2022-10-22T19:54:32.261Z,9.85
2022-10-22T19:56:58.932Z,9.81
2022-10-22T19:59:28.552Z,9.82
2022-10-22T20:01:59.329Z,9.86
2022-10-22T20:04:26.025Z,9.79
2022-10-22T20:06:52.592Z,9.82
2022-10-22T20:09:19.159Z,9.81
2022-10-22T20:11:45.882Z,9.86
2022-10-22T20:14:13.003Z,9.94
2022-10-22T20:16:40.503Z,9.93
2022-10-22T20:19:10.293Z,9.97
2022-10-22T20:21:36.981Z,9.92
2022-10-22T20:24:04.341Z,9.83
2022-10-22T20:26:30.937Z,9.76
2022-10-22T20:28:58.142Z,9.76
2022-10-22T20:31:26.384Z,9.80
2022-10-22T20:33:55.142Z,9.78
2022-10-22T20:36:23.982Z,9.80
2022-10-22T20:38:51.575Z,9.78
2022-10-22T20:41:20.776Z,9.85
2022-10-22T20:43:49.317Z,9.85
2022-10-22T20:46:18.723Z,9.86
2022-10-22T20:48:45.661Z,9.85
2022-10-22T20:51:12.964Z,9.80
2022-10-22T20:53:40.876Z,9.81
2022-10-22T20:56:08.097Z,9.78
2022-10-22T20:58:35.515Z,9.80
2022-10-22T21:01:02.143Z,9.76
2022-10-22T21:03:28.729Z,9.78
2022-10-22T21:05:55.374Z,9.80
2022-10-22T21:08:21.934Z,9.79
2022-10-22T21:10:49.885Z,9.76
2022-10-22T21:13:16.849Z,9.72
2022-10-22T21:15:43.463Z,9.63
2022-10-22T21:18:10.036Z,9.67
2022-10-22T21:20:38.274Z,9.69
2022-10-22T21:23:05.017Z,9.69
2022-10-22T21:25:31.631Z,9.61
2022-10-22T21:27:59.535Z,9.49
2022-10-22T21:30:26.200Z,9.49
2022-10-22T21:32:52.777Z,9.53
2022-10-22T21:35:19.369Z,9.55
2022-10-22T21:37:45.907Z,9.48
2022-10-22T21:40:12.719Z,9.40
2022-10-22T21:42:39.373Z,9.35
2022-10-22T21:45:12.184Z,9.33
2022-10-22T21:47:41.140Z,9.35
2022-10-22T21:50:08.508Z,9.41
2022-10-22T21:52:35.092Z,9.41
2022-10-22T21:55:01.657Z,9.33
2022-10-22T21:57:28.220Z,9.31
2022-10-22T21:59:54.796Z,9.31
2022-10-22T22:02:22.732Z,9.38
2022-10-22T22:04:49.286Z,9.37
2022-10-22T22:07:15.963Z,9.31
2022-10-22T22:09:42.518Z,9.32
2022-10-22T22:12:09.073Z,9.34
2022-10-22T22:14:35.648Z,9.24
2022-10-22T22:17:02.225Z,9.26
2022-10-22T22:19:30.156Z,9.20
2022-10-22T22:21:56.743Z,9.18
2022-10-22T22:24:23.342Z,9.18
2022-10-22T22:26:49.915Z,9.13
2022-10-22T22:29:16.482Z,8.99
2022-10-22T22:31:43.057Z,8.90
2022-10-22T22:34:12.524Z,8.96
2022-10-22T22:36:42.085Z,9.06
2022-10-22T22:39:11.704Z,9.02
2022-10-22T22:41:38.345Z,8.93
2022-10-22T22:44:05.610Z,8.99
2022-10-22T22:46:32.233Z,8.99
2022-10-22T22:48:58.857Z,8.96
2022-10-22T22:51:25.484Z,9.04
2022-10-22T22:53:53.476Z,9.12
2022-10-22T22:56:21.722Z,9.05
2022-10-22T22:58:48.724Z,8.95
2022-10-22T23:01:17.764Z,8.93
2022-10-22T23:03:45.195Z,8.96
2022-10-22T23:06:13.137Z,8.97
2022-10-22T23:08:39.927Z,8.89
2022-10-22T23:11:10.631Z,8.88
2022-10-22T23:13:38.432Z,8.86
2022-10-22T23:16:06.457Z,8.87
2022-10-22T23:18:33.058Z,8.83
2022-10-22T23:21:03.843Z,8.73
2022-10-22T23:23:30.415Z,8.67
2022-10-22T23:28:29.992Z,8.68
2022-10-22T23:30:56.562Z,8.55
2022-10-22T23:33:23.113Z,8.56
2022-10-22T23:35:49.660Z,8.62
2022-10-22T23:38:16.212Z,8.65
2022-10-22T23:40:42.815Z,8.65
2022-10-22T23:43:09.344Z,8.71
2022-10-22T23:45:37.302Z,8.66
2022-10-22T23:48:04.221Z,8.63
2022-10-22T23:50:30.803Z,8.64
2022-10-22T23:52:57.377Z,8.62
2022-10-22T23:55:24.054Z,8.66
2022-10-22T23:57:50.650Z,8.60
